Rocky Mount, VA (24151)

6:28 PM EST on February 06, 2016 (GMT -0500)
Foggy Ridge Road | | Change Station
CLOSE
Current Station
Personal Weather Station
Location: Rocky Mount, VA
Elevation: 1125 ft
Nearby Weather Stations

Elev 1125 ft 37.05 °N, 79.89 °W | Updated 0 second ago

Clear
Clear
39.6 °F
Feels Like 40 °F
N
0.0
Wind Variable Wind from SE
Gusts 0.0 mph

Today
High -- | Low -- °F
--% Chance of Precip.
Yesterday
High -- | Low -- °F
Precip. -- in
Pressure 30.32 in
Visibility 10.0 miles
Clouds Scattered Clouds 13000 ft
Scattered Clouds 20000 ft
Windchill 40 °F
Dew Point 17 °F
Humidity 39%
Rainfall 0.00 in
Snow Depth Not available.
7:18 AM 5:49 PM
Waning Crescent, 4% visible
METAR KROA 062254Z 12005KT 10SM SCT130 SCT200 04/M08 A3029 RMK AO2 SLP266 T00441083
Pressure 30.32 in
Visibility 10.0 miles
Clouds Scattered Clouds 13000 ft
Scattered Clouds 20000 ft
Windchill 40 °F
Dew Point 17 °F
Humidity 39%
Rainfall 0.00 in
Snow Depth Not available.
7:18 AM 5:49 PM
Waning Crescent, 4% visible
METAR KROA 062254Z 12005KT 10SM SCT130 SCT200 04/M08 A3029 RMK AO2 SLP266 T00441083

10-Day Weather Forecast

Almanac

Astronomy

Feb. 06, 2016 Rise Set
Actual Time
Civil Twilight
Nautical Twilight
Astronomical Twilight
Moon
Length of Visible Light
Length of Day
Tomorrow will be .
, % of the Moon is Illuminated

Today's Extremes

State Highs State Lows

Community

WunderPhotos

Upload Photos

1,891,094 photos uploaded!

WunderBlog® & News

Nearby

Air Quality

  Air Quality AQ Index Pollutant
Not available.

Snow Depth

Station Depth Elevation

Earthquake Activity

City Distance Mag. Time & Date
Minimum magnitude displayed is 2.5.

Coastal Water Temperatures

Place Temperature

Stations

Nearby Weather Stations

Station Location Temp. Windchill Dew Point Humidity Wind Precip. Elev Updated Type
                   

Watches & Warnings

There are currently no watches in effect.